createdAt,value
2018-11-28T00:00:22.359Z,99.90
2018-11-28T00:02:50.958Z,99.90
2018-11-28T00:05:19.714Z,99.90
2018-11-28T00:07:48.228Z,99.90
2018-11-28T00:10:16.724Z,99.90
2018-11-28T00:12:45.206Z,99.90
2018-11-28T00:15:14.695Z,99.90
2018-11-28T00:17:43.276Z,99.90
2018-11-28T00:20:15.045Z,99.90
2018-11-28T00:22:44.131Z,99.90
2018-11-28T00:25:13.541Z,99.90
2018-11-28T00:27:42.091Z,99.90
2018-11-28T00:30:13.815Z,99.90
2018-11-28T00:32:42.864Z,99.90
2018-11-28T00:35:13.886Z,99.90
2018-11-28T00:37:42.352Z,99.90
2018-11-28T00:40:12.197Z,99.90
2018-11-28T00:42:41.622Z,99.90
2018-11-28T00:45:12.499Z,99.90
2018-11-28T00:47:41.120Z,99.90
2018-11-28T00:50:13.776Z,99.90
2018-11-28T00:52:42.288Z,99.90
2018-11-28T00:55:12.076Z,99.90
2018-11-28T00:57:40.571Z,99.90
2018-11-28T01:00:15.607Z,99.90
2018-11-28T01:02:44.426Z,99.90
2018-11-28T01:05:13.701Z,99.90
2018-11-28T01:07:42.771Z,99.90
2018-11-28T01:10:15.236Z,99.90
2018-11-28T01:12:43.714Z,99.90
2018-11-28T01:15:13.161Z,99.90
2018-11-28T01:17:41.668Z,99.90
2018-11-28T01:20:11.425Z,99.90
2018-11-28T01:22:39.915Z,99.90
2018-11-28T01:25:09.812Z,99.90
2018-11-28T01:27:38.388Z,99.90
2018-11-28T01:30:12.505Z,99.90
2018-11-28T01:32:40.993Z,99.90
2018-11-28T01:35:13.481Z,99.90
2018-11-28T01:37:42.212Z,99.90
2018-11-28T01:40:12.920Z,99.90
2018-11-28T01:42:41.429Z,99.90
2018-11-28T01:45:11.531Z,99.90
2018-11-28T01:47:40.022Z,99.90
2018-11-28T01:50:10.164Z,99.90
2018-11-28T01:52:38.641Z,99.90
2018-11-28T01:55:09.312Z,99.90
2018-11-28T01:57:37.783Z,99.90
2018-11-28T02:00:10.876Z,99.90
2018-11-28T02:02:39.391Z,99.90
2018-11-28T02:05:08.784Z,99.90
2018-11-28T02:07:37.307Z,99.90
2018-11-28T02:10:10.948Z,99.90
2018-11-28T02:12:39.707Z,99.90
2018-11-28T02:15:09.926Z,99.90
2018-11-28T02:17:38.369Z,99.90
2018-11-28T02:20:09.848Z,99.90
2018-11-28T02:22:38.357Z,99.90
2018-11-28T02:25:08.073Z,99.90
2018-11-28T02:27:36.534Z,99.90
2018-11-28T02:30:09.944Z,99.90
2018-11-28T02:32:38.405Z,99.90
2018-11-28T02:35:09.363Z,99.90
2018-11-28T02:37:38.443Z,99.90
2018-11-28T02:40:08.655Z,99.90
2018-11-28T02:42:37.146Z,99.90
2018-11-28T02:45:13.909Z,99.90
2018-11-28T02:47:42.412Z,99.90
2018-11-28T02:50:11.016Z,99.90
2018-11-28T02:52:39.491Z,99.90
2018-11-28T02:55:09.366Z,99.90
2018-11-28T02:57:37.851Z,99.90
2018-11-28T03:00:17.523Z,99.90
2018-11-28T03:02:46.015Z,99.90
2018-11-28T03:05:14.920Z,99.90
2018-11-28T03:07:43.413Z,99.90
2018-11-28T03:10:17.775Z,99.90
2018-11-28T03:12:46.323Z,99.90
2018-11-28T03:15:16.717Z,99.90
2018-11-28T03:17:45.182Z,99.90
2018-11-28T03:20:13.769Z,99.90
2018-11-28T03:22:42.279Z,99.90
2018-11-28T03:25:11.589Z,99.90
2018-11-28T03:27:40.087Z,99.90
2018-11-28T03:30:11.467Z,99.90
2018-11-28T03:32:39.957Z,99.90
2018-11-28T03:35:11.266Z,99.90
2018-11-28T03:37:39.793Z,99.90
2018-11-28T03:40:08.686Z,99.90
2018-11-28T03:42:37.163Z,99.90
2018-11-28T03:45:08.285Z,99.90
2018-11-28T03:47:36.793Z,99.90
2018-11-28T03:50:05.756Z,99.90
2018-11-28T03:52:34.233Z,99.90
2018-11-28T03:55:02.687Z,99.90
2018-11-28T03:57:31.160Z,99.90
2018-11-28T03:59:59.642Z,99.90
2018-11-28T04:02:28.105Z,99.90
2018-11-28T04:04:56.559Z,99.90
2018-11-28T04:07:25.053Z,99.90
2018-11-28T04:09:53.510Z,99.90
2018-11-28T04:12:21.972Z,99.90
2018-11-28T04:14:50.444Z,99.90
2018-11-28T04:17:18.949Z,99.90
2018-11-28T04:19:47.472Z,99.90
2018-11-28T04:22:15.933Z,99.90
2018-11-28T04:24:44.393Z,99.90
2018-11-28T04:27:12.812Z,99.90
2018-11-28T04:29:41.285Z,99.90
2018-11-28T04:32:09.757Z,99.90
2018-11-28T04:34:38.235Z,99.90
2018-11-28T04:37:07.189Z,99.90
2018-11-28T04:39:35.763Z,99.90
2018-11-28T04:42:04.297Z,99.90
2018-11-28T04:44:32.819Z,99.90
2018-11-28T04:47:01.280Z,99.90
2018-11-28T04:49:29.755Z,99.90
2018-11-28T04:51:58.204Z,99.90
2018-11-28T04:54:26.653Z,99.90
2018-11-28T04:56:55.138Z,99.90
2018-11-28T04:59:23.616Z,99.90
2018-11-28T05:01:52.076Z,99.90
2018-11-28T05:04:20.552Z,99.90
2018-11-28T05:07:53.178Z,99.90
2018-11-28T05:10:30.332Z,99.90
2018-11-28T05:12:59.676Z,99.90
2018-11-28T05:15:31.113Z,99.90
2018-11-28T05:17:59.709Z,99.90
2018-11-28T05:20:29.359Z,99.90
2018-11-28T05:22:57.864Z,99.90
2018-11-28T05:25:28.140Z,99.90
2018-11-28T05:27:58.812Z,99.90
2018-11-28T05:30:31.365Z,99.90
2018-11-28T05:33:00.150Z,99.90
2018-11-28T05:35:34.889Z,99.90
2018-11-28T05:38:05.824Z,99.90
2018-11-28T05:40:34.312Z,99.90
2018-11-28T05:43:02.779Z,99.90
2018-11-28T05:45:31.253Z,99.90
2018-11-28T05:47:59.723Z,99.90
2018-11-28T05:50:28.173Z,99.90
2018-11-28T05:52:56.651Z,99.90
2018-11-28T05:55:25.121Z,99.90
2018-11-28T05:57:53.613Z,99.90
2018-11-28T06:00:28.395Z,99.90
2018-11-28T06:02:56.848Z,99.90
2018-11-28T06:05:25.341Z,99.90
2018-11-28T06:07:53.855Z,99.90
2018-11-28T06:10:27.897Z,99.90
2018-11-28T06:12:56.407Z,99.90
2018-11-28T06:15:24.849Z,99.90
2018-11-28T06:17:53.337Z,99.90
2018-11-28T06:20:21.786Z,99.90
2018-11-28T06:22:50.296Z,99.90
2018-11-28T06:25:18.798Z,99.90
2018-11-28T06:27:47.264Z,99.90
2018-11-28T06:30:17.686Z,99.90
2018-11-28T06:32:51.171Z,99.90
2018-11-28T06:35:14.979Z,99.90
2018-11-28T06:37:43.914Z,99.90
2018-11-28T06:40:14.299Z,99.90
2018-11-28T06:42:43.119Z,99.90
2018-11-28T06:45:13.095Z,99.90
2018-11-28T06:47:41.589Z,99.90
2018-11-28T06:50:13.200Z,99.90
2018-11-28T06:52:41.969Z,99.90
2018-11-28T06:55:11.972Z,99.90
2018-11-28T06:57:40.443Z,99.90
2018-11-28T07:00:12.700Z,99.90
2018-11-28T07:02:41.413Z,99.90
2018-11-28T07:05:10.577Z,99.90
2018-11-28T07:07:39.085Z,99.90
2018-11-28T07:10:10.127Z,99.90
2018-11-28T07:12:38.588Z,99.90
2018-11-28T07:15:12.555Z,99.90
2018-11-28T07:17:42.078Z,99.90
2018-11-28T07:20:12.542Z,99.90
2018-11-28T07:22:41.020Z,99.90
2018-11-28T07:25:10.723Z,99.90
2018-11-28T07:27:44.835Z,99.90
2018-11-28T07:30:15.074Z,99.90
2018-11-28T07:32:44.140Z,99.40
2018-11-28T07:35:13.233Z,99.80
2018-11-28T07:37:41.700Z,99.90
2018-11-28T07:40:17.337Z,99.90
2018-11-28T07:42:54.393Z,99.90
2018-11-28T07:45:22.849Z,99.60
2018-11-28T07:47:51.337Z,99.90
2018-11-28T07:50:19.837Z,99.80
2018-11-28T07:52:48.351Z,99.90
2018-11-28T07:55:16.800Z,99.90
2018-11-28T07:57:45.260Z,99.90
2018-11-28T08:00:14.955Z,99.90
2018-11-28T08:02:44.114Z,99.90
2018-11-28T08:05:12.975Z,99.90
2018-11-28T08:07:41.564Z,99.90
2018-11-28T08:10:12.016Z,99.90
2018-11-28T08:12:40.518Z,99.90
2018-11-28T08:15:09.169Z,99.90
2018-11-28T08:17:37.642Z,99.90
2018-11-28T08:20:06.509Z,99.90
2018-11-28T08:22:36.170Z,99.90
2018-11-28T08:25:03.870Z,99.90
2018-11-28T08:27:32.108Z,99.90
2018-11-28T08:30:00.602Z,99.90
2018-11-28T08:32:29.079Z,99.90
2018-11-28T08:34:57.545Z,99.90
2018-11-28T08:37:26.013Z,99.90
2018-11-28T08:39:54.505Z,99.90
2018-11-28T08:42:22.973Z,99.90
2018-11-28T08:44:51.545Z,99.90
2018-11-28T08:47:19.938Z,99.90
2018-11-28T08:49:48.439Z,99.90
2018-11-28T08:52:16.885Z,99.90
2018-11-28T08:54:45.359Z,99.90
2018-11-28T08:57:13.806Z,99.90
2018-11-28T08:59:42.317Z,99.70
2018-11-28T09:02:10.811Z,99.60
2018-11-28T09:04:39.295Z,99.80
2018-11-28T09:07:07.757Z,99.90
2018-11-28T09:09:36.225Z,99.90
2018-11-28T09:12:04.764Z,99.30
2018-11-28T09:14:33.284Z,98.90
2018-11-28T09:17:01.768Z,98.10
2018-11-28T09:19:30.248Z,97.50
2018-11-28T09:21:58.735Z,97.60
2018-11-28T09:24:27.207Z,98.60
2018-11-28T09:26:55.678Z,98.20
2018-11-28T09:29:24.169Z,97.90
2018-11-28T09:31:52.751Z,97.10
2018-11-28T09:34:21.219Z,97.60
2018-11-28T09:36:49.820Z,97.90
2018-11-28T09:39:18.300Z,97.70
2018-11-28T09:41:46.777Z,96.90
2018-11-28T09:44:15.247Z,96.90
2018-11-28T09:46:43.747Z,97.30
2018-11-28T09:49:12.213Z,96.90
2018-11-28T09:51:40.663Z,95.40
2018-11-28T09:54:09.144Z,96.30
2018-11-28T09:56:37.597Z,96.40
2018-11-28T09:59:06.133Z,96.40
2018-11-28T10:01:34.745Z,96.00
2018-11-28T10:04:03.194Z,95.10
2018-11-28T10:06:31.670Z,94.40
2018-11-28T10:09:00.112Z,95.30
2018-11-28T10:11:28.636Z,95.50
2018-11-28T10:13:57.082Z,95.30
2018-11-28T10:16:25.553Z,95.50
2018-11-28T10:18:54.025Z,95.30
2018-11-28T10:21:22.492Z,95.40
2018-11-28T10:23:50.972Z,95.80
2018-11-28T10:26:19.425Z,95.40
2018-11-28T10:28:47.909Z,94.50
2018-11-28T10:31:16.384Z,94.70
2018-11-28T10:33:44.864Z,94.10
2018-11-28T10:36:13.389Z,94.40
2018-11-28T10:38:41.871Z,93.30
2018-11-28T10:41:10.345Z,94.20
2018-11-28T10:43:38.828Z,94.30
2018-11-28T10:46:07.281Z,94.70
2018-11-28T10:48:35.781Z,94.50
2018-11-28T10:51:04.265Z,94.20
2018-11-28T10:53:32.748Z,94.70
2018-11-28T10:56:01.264Z,93.70
2018-11-28T10:58:29.743Z,93.80
2018-11-28T11:01:03.585Z,93.70
2018-11-28T11:03:37.508Z,93.70
2018-11-28T11:07:13.396Z,93.90
2018-11-28T11:09:47.164Z,92.60
2018-11-28T11:13:21.949Z,93.80
2018-11-28T11:15:56.311Z,92.80
2018-11-28T11:18:25.398Z,92.90
2018-11-28T11:20:54.010Z,93.10
2018-11-28T11:23:22.556Z,92.10
2018-11-28T11:25:51.632Z,92.80
2018-11-28T11:28:20.501Z,92.90
2018-11-28T11:30:49.043Z,91.70
2018-11-28T11:33:17.669Z,92.30
2018-11-28T11:35:46.174Z,92.30
2018-11-28T11:38:14.639Z,92.70
2018-11-28T11:40:43.136Z,92.20
2018-11-28T11:43:11.634Z,90.70
2018-11-28T11:45:40.315Z,91.70
2018-11-28T11:48:08.829Z,92.40
2018-11-28T11:50:37.339Z,91.90
2018-11-28T11:53:06.551Z,92.70
2018-11-28T11:55:36.067Z,93.10
2018-11-28T11:58:04.814Z,91.90
2018-11-28T12:00:33.352Z,91.80
2018-11-28T12:03:04.498Z,90.90
2018-11-28T12:05:33.270Z,91.40
2018-11-28T12:08:01.867Z,91.40
2018-11-28T12:10:30.533Z,91.90
2018-11-28T12:12:59.028Z,91.60
2018-11-28T12:15:27.501Z,91.80
2018-11-28T12:17:56.111Z,89.90
2018-11-28T12:20:29.468Z,89.40
2018-11-28T12:22:57.975Z,89.40
2018-11-28T12:25:26.463Z,85.80
2018-11-28T12:27:54.943Z,88.00
2018-11-28T12:30:23.460Z,86.70
2018-11-28T12:32:51.920Z,90.30
2018-11-28T12:35:20.608Z,90.50
2018-11-28T12:37:49.085Z,88.70
2018-11-28T12:40:17.944Z,91.10
2018-11-28T12:42:50.197Z,90.70
2018-11-28T12:45:19.715Z,90.00
2018-11-28T12:47:48.835Z,90.10
2018-11-28T12:50:25.969Z,87.60
2018-11-28T12:52:59.369Z,89.80
2018-11-28T12:55:28.111Z,90.30
2018-11-28T12:57:57.266Z,90.30
2018-11-28T13:00:28.007Z,90.50
2018-11-28T13:02:56.493Z,90.80
2018-11-28T13:05:26.158Z,90.30
2018-11-28T13:07:55.683Z,89.40
2018-11-28T13:10:25.741Z,90.50
2018-11-28T13:12:55.404Z,90.60
2018-11-28T13:15:24.930Z,90.20
2018-11-28T13:17:53.475Z,89.10
2018-11-28T13:20:22.329Z,90.70
2018-11-28T13:22:52.011Z,90.50
2018-11-28T13:25:25.273Z,90.10
2018-11-28T13:27:54.040Z,90.90
2018-11-28T13:30:24.609Z,91.10
2018-11-28T13:32:53.820Z,91.60
2018-11-28T13:35:28.023Z,91.80
2018-11-28T13:38:09.856Z,91.30
2018-11-28T13:40:38.324Z,91.70
2018-11-28T13:43:07.079Z,92.10
2018-11-28T13:45:37.119Z,92.20
2018-11-28T13:48:06.018Z,92.20
2018-11-28T13:50:34.478Z,91.80
2018-11-28T13:53:05.711Z,92.30
2018-11-28T13:55:38.495Z,92.30
2018-11-28T13:58:04.140Z,91.70
2018-11-28T14:00:32.639Z,91.90
2018-11-28T14:03:01.113Z,92.40
2018-11-28T14:05:29.583Z,92.20
2018-11-28T14:07:58.064Z,91.90
2018-11-28T14:10:26.617Z,92.80
2018-11-28T14:12:55.115Z,92.20
2018-11-28T14:15:23.956Z,92.40
2018-11-28T14:17:56.550Z,92.10
2018-11-28T14:20:25.068Z,93.10
2018-11-28T14:22:53.548Z,93.70
2018-11-28T14:25:22.066Z,94.20
2018-11-28T14:27:50.639Z,93.70
2018-11-28T14:30:21.077Z,95.00
2018-11-28T14:32:50.182Z,94.10
2018-11-28T14:35:19.020Z,94.90
2018-11-28T14:37:47.540Z,95.20
2018-11-28T14:40:19.806Z,95.20
2018-11-28T14:42:50.028Z,95.00
2018-11-28T14:45:19.383Z,95.50
2018-11-28T14:47:48.645Z,95.80
2018-11-28T14:50:21.165Z,95.90
2018-11-28T14:52:49.846Z,95.80
2018-11-28T14:55:21.638Z,96.20
2018-11-28T14:57:50.125Z,96.50
2018-11-28T15:00:21.963Z,96.60
2018-11-28T15:02:51.935Z,96.80
2018-11-28T15:05:44.768Z,96.80
2018-11-28T15:08:20.332Z,96.90
2018-11-28T15:10:53.447Z,97.70
2018-11-28T15:13:21.905Z,97.30
2018-11-28T15:15:50.400Z,97.60
2018-11-28T15:18:18.877Z,98.10
2018-11-28T15:20:47.473Z,98.10
2018-11-28T15:23:15.959Z,97.90
2018-11-28T15:25:44.465Z,98.00
2018-11-28T15:28:12.934Z,98.00
2018-11-28T15:30:41.384Z,98.30
2018-11-28T15:33:09.868Z,98.40
2018-11-28T15:35:39.825Z,98.40
2018-11-28T15:38:08.836Z,98.20
2018-11-28T15:40:37.315Z,98.20
2018-11-28T15:43:05.884Z,98.40
2018-11-28T15:45:34.385Z,98.30
2018-11-28T15:48:02.896Z,98.70
2018-11-28T15:50:31.369Z,98.70
2018-11-28T15:52:59.896Z,98.30
2018-11-28T15:55:28.454Z,99.10
2018-11-28T15:57:56.961Z,99.50
2018-11-28T16:00:26.196Z,98.90
2018-11-28T16:02:55.109Z,99.00
2018-11-28T16:05:23.656Z,98.90
2018-11-28T16:07:52.124Z,99.10
2018-11-28T16:10:25.946Z,99.30
2018-11-28T16:12:54.409Z,99.20
2018-11-28T16:15:25.585Z,99.20
2018-11-28T16:17:54.049Z,99.10
2018-11-28T16:20:22.566Z,99.50
2018-11-28T16:22:51.060Z,99.60
2018-11-28T16:25:19.557Z,99.60
2018-11-28T16:27:48.044Z,99.70
2018-11-28T16:30:16.987Z,99.90
2018-11-28T16:32:46.364Z,99.90
2018-11-28T16:35:16.010Z,99.90
2018-11-28T16:37:44.502Z,99.90
2018-11-28T16:40:14.994Z,99.90
2018-11-28T16:42:43.521Z,99.90
2018-11-28T16:45:18.200Z,99.90
2018-11-28T16:47:47.196Z,99.70
2018-11-28T16:50:16.587Z,99.70
2018-11-28T16:52:45.336Z,99.70
2018-11-28T16:55:15.739Z,99.80
2018-11-28T16:57:46.561Z,99.30
2018-11-28T17:00:17.065Z,99.80
2018-11-28T17:02:45.606Z,99.70
2018-11-28T17:05:16.248Z,99.70
2018-11-28T17:07:44.761Z,99.30
2018-11-28T17:10:17.678Z,99.50
2018-11-28T17:12:47.396Z,99.90
2018-11-28T17:15:17.058Z,99.90
2018-11-28T17:17:45.784Z,99.90
2018-11-28T17:20:18.413Z,99.90
2018-11-28T17:22:47.209Z,99.90
2018-11-28T17:25:33.112Z,99.90
2018-11-28T17:28:01.572Z,99.90
2018-11-28T17:30:30.716Z,99.90
2018-11-28T17:32:59.220Z,99.90
2018-11-28T17:35:27.712Z,99.90
2018-11-28T17:37:57.121Z,99.90
2018-11-28T17:40:27.815Z,99.90
2018-11-28T17:42:57.629Z,99.90
2018-11-28T17:45:26.784Z,99.90
2018-11-28T17:47:55.282Z,99.90
2018-11-28T17:50:25.836Z,99.90
2018-11-28T17:53:02.715Z,99.90
2018-11-28T17:55:34.410Z,99.90
2018-11-28T17:58:02.870Z,99.90
2018-11-28T18:00:31.396Z,99.90
2018-11-28T18:02:59.907Z,99.90
2018-11-28T18:05:28.419Z,99.90
2018-11-28T18:07:56.918Z,99.90
2018-11-28T18:10:25.427Z,99.90
2018-11-28T18:13:04.451Z,99.90
2018-11-28T18:15:32.984Z,99.90
2018-11-28T18:18:01.607Z,99.90
2018-11-28T18:20:30.086Z,99.90
2018-11-28T18:22:58.600Z,99.90
2018-11-28T18:25:28.421Z,99.90
2018-11-28T18:27:56.957Z,99.90
2018-11-28T18:30:25.433Z,99.90
2018-11-28T18:32:53.908Z,99.90
2018-11-28T18:35:22.349Z,99.90
2018-11-28T18:37:50.862Z,99.90
2018-11-28T18:40:20.154Z,99.90
2018-11-28T18:42:49.111Z,99.90
2018-11-28T18:45:21.055Z,99.90
2018-11-28T18:47:54.299Z,99.90
2018-11-28T18:50:24.092Z,99.90
2018-11-28T18:52:53.748Z,99.90
2018-11-28T18:55:22.372Z,99.90
2018-11-28T18:57:53.001Z,99.90
2018-11-28T19:00:23.593Z,99.90
2018-11-28T19:02:52.720Z,99.90
2018-11-28T19:05:21.203Z,99.90
2018-11-28T19:07:49.764Z,99.90
2018-11-28T19:10:26.019Z,99.90
2018-11-28T19:12:48.777Z,99.90
2018-11-28T19:15:19.604Z,99.90
2018-11-28T19:17:48.565Z,99.90
2018-11-28T19:20:18.142Z,99.90
2018-11-28T19:22:47.389Z,99.90
2018-11-28T19:25:17.907Z,99.90
2018-11-28T19:27:46.816Z,99.90
2018-11-28T19:30:22.713Z,99.90
2018-11-28T19:32:51.222Z,99.90
2018-11-28T19:35:19.714Z,99.90
2018-11-28T19:37:48.204Z,99.90
2018-11-28T19:40:42.255Z,99.90
2018-11-28T19:43:10.739Z,99.90
2018-11-28T19:45:39.200Z,99.90
2018-11-28T19:48:09.460Z,99.90
2018-11-28T19:50:37.956Z,99.90
2018-11-28T19:53:07.657Z,99.90
2018-11-28T19:55:36.325Z,99.90
2018-11-28T19:58:04.870Z,99.90
2018-11-28T20:00:33.351Z,99.90
2018-11-28T20:03:01.928Z,99.90
2018-11-28T20:05:30.428Z,99.90
2018-11-28T20:07:58.909Z,99.90
2018-11-28T20:10:27.414Z,99.90
2018-11-28T20:12:55.919Z,99.90
2018-11-28T20:15:28.690Z,99.90
2018-11-28T20:17:57.551Z,99.90
2018-11-28T20:20:26.080Z,99.90
2018-11-28T20:22:54.566Z,99.90
2018-11-28T20:25:24.157Z,99.90
2018-11-28T20:27:54.972Z,99.90
2018-11-28T20:30:34.925Z,99.90
2018-11-28T20:33:03.447Z,99.90
2018-11-28T20:35:31.957Z,99.90
2018-11-28T20:38:00.454Z,99.90
2018-11-28T20:40:28.946Z,99.90
2018-11-28T20:42:57.464Z,99.90
2018-11-28T20:45:26.088Z,99.90
2018-11-28T20:47:54.570Z,99.90
2018-11-28T20:50:25.924Z,99.90
2018-11-28T20:52:59.830Z,99.90
2018-11-28T20:55:28.347Z,99.90
2018-11-28T20:57:56.811Z,99.90
2018-11-28T21:00:25.948Z,99.90
2018-11-28T21:02:54.465Z,99.90
2018-11-28T21:05:22.981Z,99.90
2018-11-28T21:07:51.474Z,99.90
2018-11-28T21:10:25.492Z,99.90
2018-11-28T21:12:53.995Z,99.90
2018-11-28T21:15:22.480Z,99.90
2018-11-28T21:17:50.968Z,99.90
2018-11-28T21:20:21.025Z,99.90
2018-11-28T21:23:00.079Z,99.90
2018-11-28T21:25:28.569Z,99.90
2018-11-28T21:27:57.055Z,99.90
2018-11-28T21:30:25.591Z,99.90
2018-11-28T21:32:55.076Z,99.90
2018-11-28T21:35:30.032Z,99.90
2018-11-28T21:37:58.541Z,99.90
2018-11-28T21:40:27.396Z,99.90
2018-11-28T21:42:55.991Z,99.90
2018-11-28T21:45:25.308Z,99.90
2018-11-28T21:47:53.839Z,99.90
2018-11-28T21:50:22.329Z,99.90
2018-11-28T21:52:50.818Z,99.90
2018-11-28T21:55:20.632Z,99.90
2018-11-28T21:57:49.132Z,99.90
2018-11-28T22:00:24.768Z,99.90
2018-11-28T22:02:53.403Z,99.90
2018-11-28T22:05:22.394Z,99.90
2018-11-28T22:07:50.904Z,99.90
2018-11-28T22:10:21.600Z,99.90
2018-11-28T22:12:50.096Z,99.90
2018-11-28T22:15:19.020Z,99.90
2018-11-28T22:17:52.435Z,99.90
2018-11-28T22:20:21.017Z,99.90
2018-11-28T22:22:49.544Z,99.90
2018-11-28T22:25:21.156Z,99.90
2018-11-28T22:27:49.656Z,99.90
2018-11-28T22:30:21.032Z,99.90
2018-11-28T22:32:49.533Z,99.90
2018-11-28T22:35:17.997Z,99.90
2018-11-28T22:37:46.496Z,99.90
2018-11-28T22:40:21.117Z,99.90
2018-11-28T22:42:49.693Z,99.90
2018-11-28T22:45:19.513Z,99.90
2018-11-28T22:47:48.043Z,99.90
2018-11-28T22:50:16.584Z,99.90
2018-11-28T22:52:45.045Z,99.90
2018-11-28T22:55:14.906Z,99.90
2018-11-28T22:57:44.414Z,99.90
2018-11-28T23:00:16.608Z,99.90
2018-11-28T23:02:53.529Z,99.90
2018-11-28T23:05:26.361Z,99.90
2018-11-28T23:07:55.603Z,99.90
2018-11-28T23:10:24.148Z,99.90
2018-11-28T23:12:52.608Z,99.90
2018-11-28T23:15:21.097Z,99.90
2018-11-28T23:17:54.877Z,99.90
2018-11-28T23:20:18.194Z,99.90
2018-11-28T23:22:46.682Z,99.90
2018-11-28T23:25:15.185Z,99.90
2018-11-28T23:27:43.802Z,99.90
2018-11-28T23:30:16.240Z,99.90
2018-11-28T23:32:45.217Z,99.90
2018-11-28T23:35:13.815Z,99.90
2018-11-28T23:37:43.416Z,99.90
2018-11-28T23:40:15.796Z,99.90
2018-11-28T23:42:44.333Z,99.90
2018-11-28T23:45:13.654Z,99.90
2018-11-28T23:47:42.100Z,99.90
2018-11-28T23:50:13.910Z,99.90
2018-11-28T23:52:42.557Z,99.90
2018-11-28T23:55:29.117Z,99.90
2018-11-28T23:57:57.660Z,99.90
